sensor_id;sensor_type;location;lat;lon;timestamp;temperature;humidity
33927;DHT22;20485;50.992;5.550;2023-03-03T00:01:22;0.60;99.90
33927;DHT22;20485;50.992;5.550;2023-03-03T00:03:52;2.00;99.90
33927;DHT22;20485;50.992;5.550;2023-03-03T00:06:18;0.50;99.90
33927;DHT22;20485;50.992;5.550;2023-03-03T00:08:44;0.50;99.90
33927;DHT22;20485;50.992;5.550;2023-03-03T00:11:10;0.40;99.90
33927;DHT22;20485;50.992;5.550;2023-03-03T00:13:44;0.50;99.90
33927;DHT22;20485;50.992;5.550;2023-03-03T00:16:22;0.40;99.90
33927;DHT22;20485;50.992;5.550;2023-03-03T00:18:49;0.30;99.90
33927;DHT22;20485;50.992;5.550;2023-03-03T00:23:47;0.30;99.90
33927;DHT22;20485;50.992;5.550;2023-03-03T00:26:30;1.90;99.90
33927;DHT22;20485;50.992;5.550;2023-03-03T00:28:59;0.30;99.90
33927;DHT22;20485;50.992;5.550;2023-03-03T00:31:32;0.20;99.90
33927;DHT22;20485;50.992;5.550;2023-03-03T00:36:42;0.10;99.90
33927;DHT22;20485;50.992;5.550;2023-03-03T00:39:34;0.00;99.90
33927;DHT22;20485;50.992;5.550;2023-03-03T00:42:01;0.10;99.90
33927;DHT22;20485;50.992;5.550;2023-03-03T00:47:27;-0.10;99.90
33927;DHT22;20485;50.992;5.550;2023-03-03T00:49:55;-0.20;99.90
33927;DHT22;20485;50.992;5.550;2023-03-03T00:52:26;-0.20;99.90
33927;DHT22;20485;50.992;5.550;2023-03-03T00:54:57;-0.20;99.90
33927;DHT22;20485;50.992;5.550;2023-03-03T00:57:22;-0.20;99.90
33927;DHT22;20485;50.992;5.550;2023-03-03T00:59:48;-0.30;99.90
33927;DHT22;20485;50.992;5.550;2023-03-03T01:02:14;-0.20;99.90
33927;DHT22;20485;50.992;5.550;2023-03-03T01:04:40;-0.10;99.90
33927;DHT22;20485;50.992;5.550;2023-03-03T01:07:07;-0.20;99.90
33927;DHT22;20485;50.992;5.550;2023-03-03T01:09:32;0.10;99.90
33927;DHT22;20485;50.992;5.550;2023-03-03T01:11:58;0.10;99.90
33927;DHT22;20485;50.992;5.550;2023-03-03T01:14:24;0.20;99.90
33927;DHT22;20485;50.992;5.550;2023-03-03T01:16:50;0.20;99.90
33927;DHT22;20485;50.992;5.550;2023-03-03T01:19:15;0.30;99.90
33927;DHT22;20485;50.992;5.550;2023-03-03T01:21:41;0.40;99.90
33927;DHT22;20485;50.992;5.550;2023-03-03T01:24:07;0.40;99.90
33927;DHT22;20485;50.992;5.550;2023-03-03T01:26:32;0.40;99.90
33927;DHT22;20485;50.992;5.550;2023-03-03T01:28:58;0.40;99.90
33927;DHT22;20485;50.992;5.550;2023-03-03T01:31:24;2.30;99.90
33927;DHT22;20485;50.992;5.550;2023-03-03T01:33:49;0.30;99.90
33927;DHT22;20485;50.992;5.550;2023-03-03T01:36:15;3.20;99.90
33927;DHT22;20485;50.992;5.550;2023-03-03T01:38:41;0.30;99.90
33927;DHT22;20485;50.992;5.550;2023-03-03T01:41:07;0.30;99.90
33927;DHT22;20485;50.992;5.550;2023-03-03T01:43:33;0.30;99.90
33927;DHT22;20485;50.992;5.550;2023-03-03T01:51:10;0.30;99.90
33927;DHT22;20485;50.992;5.550;2023-03-03T01:53:45;0.30;99.90
33927;DHT22;20485;50.992;5.550;2023-03-03T01:56:12;0.20;99.90
33927;DHT22;20485;50.992;5.550;2023-03-03T01:58:48;0.20;99.90
33927;DHT22;20485;50.992;5.550;2023-03-03T02:01:18;0.10;99.90
33927;DHT22;20485;50.992;5.550;2023-03-03T02:03:44;0.10;99.90
33927;DHT22;20485;50.992;5.550;2023-03-03T02:06:21;0.20;99.90
33927;DHT22;20485;50.992;5.550;2023-03-03T02:11:25;0.10;99.90
33927;DHT22;20485;50.992;5.550;2023-03-03T02:13:52;0.10;99.90
33927;DHT22;20485;50.992;5.550;2023-03-03T02:16:17;0.10;99.90
33927;DHT22;20485;50.992;5.550;2023-03-03T02:18:43;-0.10;99.90
33927;DHT22;20485;50.992;5.550;2023-03-03T02:21:13;0.00;99.90
33927;DHT22;20485;50.992;5.550;2023-03-03T02:26:23;-0.10;99.90
33927;DHT22;20485;50.992;5.550;2023-03-03T02:28:49;-0.10;99.90
33927;DHT22;20485;50.992;5.550;2023-03-03T02:31:18;-0.20;99.90
33927;DHT22;20485;50.992;5.550;2023-03-03T02:33:48;-0.20;99.90
33927;DHT22;20485;50.992;5.550;2023-03-03T02:36:20;-0.20;99.90
33927;DHT22;20485;50.992;5.550;2023-03-03T02:41:34;-0.20;99.90
33927;DHT22;20485;50.992;5.550;2023-03-03T02:46:35;0.40;99.90
33927;DHT22;20485;50.992;5.550;2023-03-03T02:49:02;-0.30;99.90
33927;DHT22;20485;50.992;5.550;2023-03-03T02:51:27;-0.30;99.90
33927;DHT22;20485;50.992;5.550;2023-03-03T02:53:53;-0.20;99.90
33927;DHT22;20485;50.992;5.550;2023-03-03T02:56:19;-0.20;99.90
33927;DHT22;20485;50.992;5.550;2023-03-03T02:58:44;-0.20;99.90
33927;DHT22;20485;50.992;5.550;2023-03-03T03:01:10;-0.10;99.90
33927;DHT22;20485;50.992;5.550;2023-03-03T03:03:36;-0.10;99.90
33927;DHT22;20485;50.992;5.550;2023-03-03T03:06:02;1.80;99.90
33927;DHT22;20485;50.992;5.550;2023-03-03T03:08:27;-0.10;99.90
33927;DHT22;20485;50.992;5.550;2023-03-03T03:10:53;-0.10;99.90
33927;DHT22;20485;50.992;5.550;2023-03-03T03:13:21;-0.10;99.90
33927;DHT22;20485;50.992;5.550;2023-03-03T03:15:47;-0.20;99.90
33927;DHT22;20485;50.992;5.550;2023-03-03T03:18:13;-0.10;99.90
33927;DHT22;20485;50.992;5.550;2023-03-03T03:20:39;-0.20;99.90
33927;DHT22;20485;50.992;5.550;2023-03-03T03:23:07;-0.20;99.90
33927;DHT22;20485;50.992;5.550;2023-03-03T03:25:33;-0.20;99.90
33927;DHT22;20485;50.992;5.550;2023-03-03T03:27:59;-0.30;99.90
33927;DHT22;20485;50.992;5.550;2023-03-03T03:30:25;1.10;99.90
33927;DHT22;20485;50.992;5.550;2023-03-03T03:32:50;0.00;99.90
33927;DHT22;20485;50.992;5.550;2023-03-03T03:35:16;-0.40;99.90
33927;DHT22;20485;50.992;5.550;2023-03-03T03:37:43;-0.50;99.90
33927;DHT22;20485;50.992;5.550;2023-03-03T03:40:09;1.60;99.90
33927;DHT22;20485;50.992;5.550;2023-03-03T03:42:35;-0.30;99.90
33927;DHT22;20485;50.992;5.550;2023-03-03T03:45:03;-0.20;99.90
33927;DHT22;20485;50.992;5.550;2023-03-03T03:47:29;-0.30;99.90
33927;DHT22;20485;50.992;5.550;2023-03-03T03:49:54;1.90;99.90
33927;DHT22;20485;50.992;5.550;2023-03-03T03:52:22;-0.40;99.90
33927;DHT22;20485;50.992;5.550;2023-03-03T03:54:47;-0.40;99.90
33927;DHT22;20485;50.992;5.550;2023-03-03T03:57:13;-0.40;99.90
33927;DHT22;20485;50.992;5.550;2023-03-03T03:59:38;-0.30;99.90
33927;DHT22;20485;50.992;5.550;2023-03-03T04:02:04;-0.40;99.90
33927;DHT22;20485;50.992;5.550;2023-03-03T04:04:30;-0.40;99.90
33927;DHT22;20485;50.992;5.550;2023-03-03T04:06:58;0.60;99.90
33927;DHT22;20485;50.992;5.550;2023-03-03T04:09:24;-0.40;99.90
33927;DHT22;20485;50.992;5.550;2023-03-03T04:11:49;-0.40;99.90
33927;DHT22;20485;50.992;5.550;2023-03-03T04:14:15;-0.40;99.90
33927;DHT22;20485;50.992;5.550;2023-03-03T04:16:41;-0.50;99.90
33927;DHT22;20485;50.992;5.550;2023-03-03T04:19:06;1.40;99.90
33927;DHT22;20485;50.992;5.550;2023-03-03T04:21:32;-0.50;99.90
33927;DHT22;20485;50.992;5.550;2023-03-03T04:23:58;-0.50;99.90
33927;DHT22;20485;50.992;5.550;2023-03-03T04:28:51;-0.60;99.90
33927;DHT22;20485;50.992;5.550;2023-03-03T04:31:16;0.30;99.90
33927;DHT22;20485;50.992;5.550;2023-03-03T04:33:42;-0.50;99.90
33927;DHT22;20485;50.992;5.550;2023-03-03T04:36:08;-0.50;99.90
33927;DHT22;20485;50.992;5.550;2023-03-03T04:38:33;-0.40;99.90
33927;DHT22;20485;50.992;5.550;2023-03-03T04:40:59;-0.40;99.90
33927;DHT22;20485;50.992;5.550;2023-03-03T04:43:25;-0.40;99.90
33927;DHT22;20485;50.992;5.550;2023-03-03T04:45:50;-0.40;99.90
33927;DHT22;20485;50.992;5.550;2023-03-03T04:48:16;-0.40;99.90
33927;DHT22;20485;50.992;5.550;2023-03-03T04:50:42;-0.50;99.90
33927;DHT22;20485;50.992;5.550;2023-03-03T04:53:08;-0.50;99.90
33927;DHT22;20485;50.992;5.550;2023-03-03T04:55:36;-0.40;99.90
33927;DHT22;20485;50.992;5.550;2023-03-03T04:58:03;-0.40;99.90
33927;DHT22;20485;50.992;5.550;2023-03-03T05:00:29;-0.50;99.90
33927;DHT22;20485;50.992;5.550;2023-03-03T05:02:55;-0.50;99.90
33927;DHT22;20485;50.992;5.550;2023-03-03T05:05:20;-0.50;99.90
33927;DHT22;20485;50.992;5.550;2023-03-03T05:07:46;-0.50;99.90
33927;DHT22;20485;50.992;5.550;2023-03-03T05:10:12;-0.50;99.90
33927;DHT22;20485;50.992;5.550;2023-03-03T05:12:38;-0.40;99.90
33927;DHT22;20485;50.992;5.550;2023-03-03T05:15:04;1.50;99.90
33927;DHT22;20485;50.992;5.550;2023-03-03T05:17:30;-0.40;99.90
33927;DHT22;20485;50.992;5.550;2023-03-03T05:19:56;-0.40;99.90
33927;DHT22;20485;50.992;5.550;2023-03-03T05:22:22;-0.40;99.90
33927;DHT22;20485;50.992;5.550;2023-03-03T05:24:48;-0.40;99.90
33927;DHT22;20485;50.992;5.550;2023-03-03T05:27:15;-0.40;99.90
33927;DHT22;20485;50.992;5.550;2023-03-03T05:29:40;-0.40;99.90
33927;DHT22;20485;50.992;5.550;2023-03-03T05:32:06;-0.40;99.90
33927;DHT22;20485;50.992;5.550;2023-03-03T05:34:32;-0.40;99.90
33927;DHT22;20485;50.992;5.550;2023-03-03T05:36:58;1.10;99.90
33927;DHT22;20485;50.992;5.550;2023-03-03T05:39:23;-0.40;99.90
33927;DHT22;20485;50.992;5.550;2023-03-03T05:41:49;-0.40;99.90
33927;DHT22;20485;50.992;5.550;2023-03-03T05:44:15;-0.40;99.90
33927;DHT22;20485;50.992;5.550;2023-03-03T05:46:40;-0.40;99.90
33927;DHT22;20485;50.992;5.550;2023-03-03T05:49:07;-0.40;99.90
33927;DHT22;20485;50.992;5.550;2023-03-03T05:51:33;-0.40;99.90
33927;DHT22;20485;50.992;5.550;2023-03-03T05:53:58;-0.50;99.90
33927;DHT22;20485;50.992;5.550;2023-03-03T05:56:24;-0.50;99.90
33927;DHT22;20485;50.992;5.550;2023-03-03T05:58:50;-0.50;99.90
33927;DHT22;20485;50.992;5.550;2023-03-03T06:01:16;-0.50;99.90
33927;DHT22;20485;50.992;5.550;2023-03-03T06:06:11;-0.50;99.90
33927;DHT22;20485;50.992;5.550;2023-03-03T06:08:38;-0.40;99.90
33927;DHT22;20485;50.992;5.550;2023-03-03T06:11:04;1.00;99.90
33927;DHT22;20485;50.992;5.550;2023-03-03T06:13:29;-0.50;99.90
33927;DHT22;20485;50.992;5.550;2023-03-03T06:15:55;-0.50;99.90
33927;DHT22;20485;50.992;5.550;2023-03-03T06:18:21;-0.50;99.90
33927;DHT22;20485;50.992;5.550;2023-03-03T06:20:51;-0.50;99.90
33927;DHT22;20485;50.992;5.550;2023-03-03T06:23:17;1.10;99.90
33927;DHT22;20485;50.992;5.550;2023-03-03T06:25:42;-0.60;99.90
33927;DHT22;20485;50.992;5.550;2023-03-03T06:28:09;-0.60;99.90
33927;DHT22;20485;50.992;5.550;2023-03-03T06:30:34;-0.60;99.90
33927;DHT22;20485;50.992;5.550;2023-03-03T06:33:01;-0.60;99.90
33927;DHT22;20485;50.992;5.550;2023-03-03T06:35:29;-0.60;99.90
33927;DHT22;20485;50.992;5.550;2023-03-03T06:37:55;-0.40;99.90
33927;DHT22;20485;50.992;5.550;2023-03-03T06:40:21;-0.60;99.90
33927;DHT22;20485;50.992;5.550;2023-03-03T06:42:46;-0.60;99.90
33927;DHT22;20485;50.992;5.550;2023-03-03T06:45:14;-0.70;99.90
33927;DHT22;20485;50.992;5.550;2023-03-03T06:47:39;-0.70;99.90
33927;DHT22;20485;50.992;5.550;2023-03-03T06:50:07;-0.60;99.90
33927;DHT22;20485;50.992;5.550;2023-03-03T06:52:32;-0.70;99.90
33927;DHT22;20485;50.992;5.550;2023-03-03T06:55:00;-0.60;99.90
33927;DHT22;20485;50.992;5.550;2023-03-03T06:57:32;-0.60;99.90
33927;DHT22;20485;50.992;5.550;2023-03-03T07:02:40;-0.60;99.90
33927;DHT22;20485;50.992;5.550;2023-03-03T07:05:12;-0.60;99.90
33927;DHT22;20485;50.992;5.550;2023-03-03T07:07:38;-0.60;99.90
33927;DHT22;20485;50.992;5.550;2023-03-03T07:10:28;-0.60;99.90
33927;DHT22;20485;50.992;5.550;2023-03-03T07:13:00;2.30;99.90
33927;DHT22;20485;50.992;5.550;2023-03-03T07:15:34;-0.60;99.90
33927;DHT22;20485;50.992;5.550;2023-03-03T07:18:00;-0.60;99.90
33927;DHT22;20485;50.992;5.550;2023-03-03T07:20:34;-0.60;99.90
33927;DHT22;20485;50.992;5.550;2023-03-03T07:23:01;1.10;99.90
33927;DHT22;20485;50.992;5.550;2023-03-03T07:25:34;-0.60;99.90
33927;DHT22;20485;50.992;5.550;2023-03-03T07:28:20;-0.60;99.90
33927;DHT22;20485;50.992;5.550;2023-03-03T07:30:46;-0.60;99.90
33927;DHT22;20485;50.992;5.550;2023-03-03T07:33:34;-0.50;99.90
33927;DHT22;20485;50.992;5.550;2023-03-03T07:36:01;-0.50;99.90
33927;DHT22;20485;50.992;5.550;2023-03-03T07:38:39;-0.50;99.90
33927;DHT22;20485;50.992;5.550;2023-03-03T07:41:13;-0.40;99.90
33927;DHT22;20485;50.992;5.550;2023-03-03T07:46:42;-0.40;99.90
33927;DHT22;20485;50.992;5.550;2023-03-03T07:49:34;-0.40;99.90
33927;DHT22;20485;50.992;5.550;2023-03-03T07:52:01;-0.50;99.90
33927;DHT22;20485;50.992;5.550;2023-03-03T07:54:35;-0.40;99.90
33927;DHT22;20485;50.992;5.550;2023-03-03T07:57:14;-0.50;99.90
33927;DHT22;20485;50.992;5.550;2023-03-03T08:04:55;-0.50;99.90
33927;DHT22;20485;50.992;5.550;2023-03-03T08:07:22;-0.50;99.90
33927;DHT22;20485;50.992;5.550;2023-03-03T08:10:01;-0.50;99.90
33927;DHT22;20485;50.992;5.550;2023-03-03T08:12:35;-0.50;99.90
33927;DHT22;20485;50.992;5.550;2023-03-03T08:15:19;-0.40;99.90
33927;DHT22;20485;50.992;5.550;2023-03-03T08:17:46;-0.30;99.90
33927;DHT22;20485;50.992;5.550;2023-03-03T08:22:54;-0.30;99.90
33927;DHT22;20485;50.992;5.550;2023-03-03T08:25:19;-0.30;99.90
33927;DHT22;20485;50.992;5.550;2023-03-03T08:27:45;-0.20;99.90
33927;DHT22;20485;50.992;5.550;2023-03-03T08:30:11;-0.20;99.90
33927;DHT22;20485;50.992;5.550;2023-03-03T08:32:37;-0.20;99.90
33927;DHT22;20485;50.992;5.550;2023-03-03T08:35:03;-0.20;99.90
33927;DHT22;20485;50.992;5.550;2023-03-03T08:37:28;-0.20;99.90
33927;DHT22;20485;50.992;5.550;2023-03-03T08:39:54;-0.20;99.90
33927;DHT22;20485;50.992;5.550;2023-03-03T08:42:19;-0.10;99.90
33927;DHT22;20485;50.992;5.550;2023-03-03T08:44:45;-0.10;99.90
33927;DHT22;20485;50.992;5.550;2023-03-03T08:47:11;0.00;99.90
33927;DHT22;20485;50.992;5.550;2023-03-03T08:49:36;0.00;99.90
33927;DHT22;20485;50.992;5.550;2023-03-03T08:52:02;0.10;99.90
33927;DHT22;20485;50.992;5.550;2023-03-03T08:54:28;0.00;99.90
33927;DHT22;20485;50.992;5.550;2023-03-03T08:56:54;-0.10;99.90
33927;DHT22;20485;50.992;5.550;2023-03-03T08:59:20;0.00;99.90
33927;DHT22;20485;50.992;5.550;2023-03-03T09:01:46;0.00;99.90
33927;DHT22;20485;50.992;5.550;2023-03-03T09:04:12;0.10;99.90
33927;DHT22;20485;50.992;5.550;2023-03-03T09:06:38;0.10;99.90
33927;DHT22;20485;50.992;5.550;2023-03-03T09:09:03;0.10;99.90
33927;DHT22;20485;50.992;5.550;2023-03-03T09:11:29;0.10;99.90
33927;DHT22;20485;50.992;5.550;2023-03-03T09:14:08;0.10;99.90
33927;DHT22;20485;50.992;5.550;2023-03-03T09:16:38;0.10;99.90
33927;DHT22;20485;50.992;5.550;2023-03-03T09:21:53;0.20;99.90
33927;DHT22;20485;50.992;5.550;2023-03-03T09:24:35;0.20;99.90
33927;DHT22;20485;50.992;5.550;2023-03-03T09:27:01;0.20;99.90
33927;DHT22;20485;50.992;5.550;2023-03-03T09:29:35;0.20;99.90
33927;DHT22;20485;50.992;5.550;2023-03-03T09:32:28;0.30;99.90
33927;DHT22;20485;50.992;5.550;2023-03-03T09:34:55;0.30;99.90
33927;DHT22;20485;50.992;5.550;2023-03-03T09:37:23;0.20;99.90
33927;DHT22;20485;50.992;5.550;2023-03-03T09:39:53;0.20;99.90
33927;DHT22;20485;50.992;5.550;2023-03-03T09:56:04;0.50;99.90
33927;DHT22;20485;50.992;5.550;2023-03-03T09:58:35;0.60;99.90
33927;DHT22;20485;50.992;5.550;2023-03-03T10:01:15;0.60;99.90
33927;DHT22;20485;50.992;5.550;2023-03-03T10:13:10;0.70;99.90
33927;DHT22;20485;50.992;5.550;2023-03-03T10:16:07;0.80;99.90
33927;DHT22;20485;50.992;5.550;2023-03-03T10:19:03;1.00;99.90
33927;DHT22;20485;50.992;5.550;2023-03-03T10:21:39;0.90;99.90
33927;DHT22;20485;50.992;5.550;2023-03-03T10:32:41;1.00;99.90
33927;DHT22;20485;50.992;5.550;2023-03-03T10:43:15;1.30;99.90
33927;DHT22;20485;50.992;5.550;2023-03-03T10:48:40;1.30;99.90
33927;DHT22;20485;50.992;5.550;2023-03-03T10:54:02;1.30;99.90
33927;DHT22;20485;50.992;5.550;2023-03-03T10:59:16;1.50;99.90
33927;DHT22;20485;50.992;5.550;2023-03-03T11:01:55;1.40;99.90
33927;DHT22;20485;50.992;5.550;2023-03-03T11:07:26;1.40;99.90
33927;DHT22;20485;50.992;5.550;2023-03-03T11:24:40;1.80;99.90
33927;DHT22;20485;50.992;5.550;2023-03-03T11:32:21;1.90;99.90
33927;DHT22;20485;50.992;5.550;2023-03-03T11:37:38;1.90;99.90
33927;DHT22;20485;50.992;5.550;2023-03-03T11:40:34;1.90;99.90
33927;DHT22;20485;50.992;5.550;2023-03-03T11:46:25;2.00;99.90
33927;DHT22;20485;50.992;5.550;2023-03-03T11:49:07;2.10;99.90
33927;DHT22;20485;50.992;5.550;2023-03-03T11:51:54;2.20;99.90
33927;DHT22;20485;50.992;5.550;2023-03-03T11:55:20;2.40;99.90
33927;DHT22;20485;50.992;5.550;2023-03-03T12:09:30;2.60;99.90
33927;DHT22;20485;50.992;5.550;2023-03-03T12:26:10;2.80;99.90
33927;DHT22;20485;50.992;5.550;2023-03-03T12:28:41;2.80;99.90
33927;DHT22;20485;50.992;5.550;2023-03-03T12:34:25;2.80;99.90
33927;DHT22;20485;50.992;5.550;2023-03-03T12:59:42;3.50;99.90
33927;DHT22;20485;50.992;5.550;2023-03-03T13:10:39;3.30;99.90
33927;DHT22;20485;50.992;5.550;2023-03-03T13:13:19;3.50;99.90
33927;DHT22;20485;50.992;5.550;2023-03-03T13:19:07;3.60;99.90
33927;DHT22;20485;50.992;5.550;2023-03-03T13:24:17;3.50;99.90
33927;DHT22;20485;50.992;5.550;2023-03-03T13:26:53;3.40;99.90
33927;DHT22;20485;50.992;5.550;2023-03-03T13:29:31;3.40;99.90
33927;DHT22;20485;50.992;5.550;2023-03-03T13:34:36;3.40;99.90
33927;DHT22;20485;50.992;5.550;2023-03-03T13:37:13;3.50;99.90
33927;DHT22;20485;50.992;5.550;2023-03-03T13:42:33;3.80;99.90
33927;DHT22;20485;50.992;5.550;2023-03-03T13:45:12;3.90;99.90
33927;DHT22;20485;50.992;5.550;2023-03-03T13:50:54;3.70;99.90
33927;DHT22;20485;50.992;5.550;2023-03-03T13:53:30;3.80;99.90
33927;DHT22;20485;50.992;5.550;2023-03-03T13:56:05;3.90;99.90
33927;DHT22;20485;50.992;5.550;2023-03-03T14:01:26;3.90;99.90
33927;DHT22;20485;50.992;5.550;2023-03-03T14:06:54;4.00;99.90
33927;DHT22;20485;50.992;5.550;2023-03-03T14:15:06;3.90;99.90
33927;DHT22;20485;50.992;5.550;2023-03-03T14:17:56;3.90;99.90
33927;DHT22;20485;50.992;5.550;2023-03-03T14:20:30;4.00;99.90
33927;DHT22;20485;50.992;5.550;2023-03-03T14:23:00;4.00;99.90
33927;DHT22;20485;50.992;5.550;2023-03-03T14:25:30;4.50;99.90
33927;DHT22;20485;50.992;5.550;2023-03-03T14:28:14;3.90;99.90
33927;DHT22;20485;50.992;5.550;2023-03-03T14:30:42;4.00;99.90
33927;DHT22;20485;50.992;5.550;2023-03-03T14:35:38;4.30;99.90
33927;DHT22;20485;50.992;5.550;2023-03-03T14:40:34;4.20;99.90
33927;DHT22;20485;50.992;5.550;2023-03-03T14:43:04;4.20;99.90
33927;DHT22;20485;50.992;5.550;2023-03-03T14:45:43;4.10;99.90
33927;DHT22;20485;50.992;5.550;2023-03-03T14:48:23;4.10;99.90
33927;DHT22;20485;50.992;5.550;2023-03-03T14:50:57;4.20;99.90
33927;DHT22;20485;50.992;5.550;2023-03-03T14:53:38;4.30;99.90
33927;DHT22;20485;50.992;5.550;2023-03-03T14:56:19;4.30;99.90
33927;DHT22;20485;50.992;5.550;2023-03-03T14:58:47;4.40;99.90
33927;DHT22;20485;50.992;5.550;2023-03-03T15:01:33;4.50;99.90
33927;DHT22;20485;50.992;5.550;2023-03-03T15:04:23;4.50;99.90
33927;DHT22;20485;50.992;5.550;2023-03-03T15:06:51;4.60;99.90
33927;DHT22;20485;50.992;5.550;2023-03-03T15:11:53;4.60;99.90
33927;DHT22;20485;50.992;5.550;2023-03-03T15:14:26;4.40;99.90
33927;DHT22;20485;50.992;5.550;2023-03-03T15:16:56;6.30;99.90
33927;DHT22;20485;50.992;5.550;2023-03-03T15:19:40;4.60;99.90
33927;DHT22;20485;50.992;5.550;2023-03-03T15:30:52;4.60;99.90
33927;DHT22;20485;50.992;5.550;2023-03-03T15:33:49;5.60;99.90
33927;DHT22;20485;50.992;5.550;2023-03-03T15:36:55;4.60;99.90
33927;DHT22;20485;50.992;5.550;2023-03-03T15:42:06;4.70;99.90
33927;DHT22;20485;50.992;5.550;2023-03-03T15:45:01;4.80;99.90
33927;DHT22;20485;50.992;5.550;2023-03-03T15:56:13;4.70;99.90
33927;DHT22;20485;50.992;5.550;2023-03-03T15:59:12;4.70;99.90
33927;DHT22;20485;50.992;5.550;2023-03-03T16:04:28;4.60;99.90
33927;DHT22;20485;50.992;5.550;2023-03-03T16:07:18;4.70;99.90
33927;DHT22;20485;50.992;5.550;2023-03-03T16:12:37;4.60;99.90
33927;DHT22;20485;50.992;5.550;2023-03-03T16:20:36;4.70;99.90
33927;DHT22;20485;50.992;5.550;2023-03-03T16:23:28;4.70;99.90
33927;DHT22;20485;50.992;5.550;2023-03-03T16:31:42;4.50;99.90
33927;DHT22;20485;50.992;5.550;2023-03-03T16:36:50;5.30;99.90
33927;DHT22;20485;50.992;5.550;2023-03-03T16:39:28;4.40;99.90
33927;DHT22;20485;50.992;5.550;2023-03-03T16:50:39;4.00;99.90
33927;DHT22;20485;50.992;5.550;2023-03-03T16:53:41;3.90;99.90
33927;DHT22;20485;50.992;5.550;2023-03-03T17:04:21;3.40;99.90
33927;DHT22;20485;50.992;5.550;2023-03-03T17:07:07;3.30;99.90
33927;DHT22;20485;50.992;5.550;2023-03-03T17:13:06;3.00;99.90
33927;DHT22;20485;50.992;5.550;2023-03-03T17:27:24;2.40;99.90
33927;DHT22;20485;50.992;5.550;2023-03-03T17:32:50;2.30;99.90
33927;DHT22;20485;50.992;5.550;2023-03-03T17:43:16;1.90;99.90
33927;DHT22;20485;50.992;5.550;2023-03-03T17:45:46;1.80;99.90
33927;DHT22;20485;50.992;5.550;2023-03-03T17:52:06;1.60;99.90
33927;DHT22;20485;50.992;5.550;2023-03-03T18:06:40;1.20;99.90
33927;DHT22;20485;50.992;5.550;2023-03-03T18:11:34;1.00;99.90
33927;DHT22;20485;50.992;5.550;2023-03-03T18:14:20;1.00;99.90
33927;DHT22;20485;50.992;5.550;2023-03-03T18:22:44;0.90;99.90
33927;DHT22;20485;50.992;5.550;2023-03-03T18:25:12;0.80;99.90
33927;DHT22;20485;50.992;5.550;2023-03-03T18:27:40;0.80;99.90
33927;DHT22;20485;50.992;5.550;2023-03-03T18:30:24;0.70;99.90
33927;DHT22;20485;50.992;5.550;2023-03-03T18:40:49;0.60;99.90
33927;DHT22;20485;50.992;5.550;2023-03-03T18:49:04;0.40;99.90
33927;DHT22;20485;50.992;5.550;2023-03-03T18:56:46;0.30;99.90
33927;DHT22;20485;50.992;5.550;2023-03-03T19:04:51;0.30;99.90
33927;DHT22;20485;50.992;5.550;2023-03-03T19:07:50;0.20;99.90
33927;DHT22;20485;50.992;5.550;2023-03-03T19:15:51;0.00;99.90
33927;DHT22;20485;50.992;5.550;2023-03-03T19:18:32;0.00;99.90
33927;DHT22;20485;50.992;5.550;2023-03-03T19:21:05;0.00;99.90
33927;DHT22;20485;50.992;5.550;2023-03-03T19:23:52;0.20;99.90
33927;DHT22;20485;50.992;5.550;2023-03-03T19:37:29;0.20;99.90
33927;DHT22;20485;50.992;5.550;2023-03-03T19:42:42;0.30;99.90
33927;DHT22;20485;50.992;5.550;2023-03-03T19:45:29;0.40;99.90
33927;DHT22;20485;50.992;5.550;2023-03-03T19:50:53;0.40;99.90
33927;DHT22;20485;50.992;5.550;2023-03-03T19:56:17;0.60;99.90
33927;DHT22;20485;50.992;5.550;2023-03-03T20:04:56;0.80;99.90
33927;DHT22;20485;50.992;5.550;2023-03-03T20:13:07;1.00;99.90
33927;DHT22;20485;50.992;5.550;2023-03-03T20:15:40;1.00;99.90
33927;DHT22;20485;50.992;5.550;2023-03-03T20:35:12;1.10;99.90
33927;DHT22;20485;50.992;5.550;2023-03-03T20:37:47;1.10;99.90
33927;DHT22;20485;50.992;5.550;2023-03-03T20:51:12;1.20;99.90
33927;DHT22;20485;50.992;5.550;2023-03-03T21:04:29;1.20;99.90
33927;DHT22;20485;50.992;5.550;2023-03-03T21:06:56;1.30;99.90
33927;DHT22;20485;50.992;5.550;2023-03-03T21:09:31;1.30;99.90
33927;DHT22;20485;50.992;5.550;2023-03-03T21:12:10;1.30;99.90
33927;DHT22;20485;50.992;5.550;2023-03-03T21:15:01;1.30;99.90
33927;DHT22;20485;50.992;5.550;2023-03-03T21:17:29;1.30;99.90
33927;DHT22;20485;50.992;5.550;2023-03-03T21:20:31;1.30;99.90
33927;DHT22;20485;50.992;5.550;2023-03-03T21:22:59;1.30;99.90
33927;DHT22;20485;50.992;5.550;2023-03-03T21:28:28;1.30;99.90
33927;DHT22;20485;50.992;5.550;2023-03-03T21:31:15;1.40;99.90
33927;DHT22;20485;50.992;5.550;2023-03-03T21:36:12;1.40;99.90
33927;DHT22;20485;50.992;5.550;2023-03-03T21:38:38;1.40;99.90
33927;DHT22;20485;50.992;5.550;2023-03-03T21:41:06;1.40;99.90
33927;DHT22;20485;50.992;5.550;2023-03-03T21:43:37;1.40;99.90
33927;DHT22;20485;50.992;5.550;2023-03-03T21:46:05;1.40;99.90
33927;DHT22;20485;50.992;5.550;2023-03-03T21:48:38;1.40;99.90
33927;DHT22;20485;50.992;5.550;2023-03-03T21:51:04;1.40;99.90
33927;DHT22;20485;50.992;5.550;2023-03-03T21:53:29;1.40;99.90
33927;DHT22;20485;50.992;5.550;2023-03-03T21:55:55;1.40;99.90
33927;DHT22;20485;50.992;5.550;2023-03-03T21:58:21;1.40;99.90
33927;DHT22;20485;50.992;5.550;2023-03-03T22:00:47;1.40;99.90
33927;DHT22;20485;50.992;5.550;2023-03-03T22:03:13;1.40;99.90
33927;DHT22;20485;50.992;5.550;2023-03-03T22:05:40;1.40;99.90
33927;DHT22;20485;50.992;5.550;2023-03-03T22:08:06;1.40;99.90
33927;DHT22;20485;50.992;5.550;2023-03-03T22:10:31;1.40;99.90
33927;DHT22;20485;50.992;5.550;2023-03-03T22:12:57;1.40;99.90
33927;DHT22;20485;50.992;5.550;2023-03-03T22:15:23;3.00;99.90
33927;DHT22;20485;50.992;5.550;2023-03-03T22:17:49;1.40;99.90
33927;DHT22;20485;50.992;5.550;2023-03-03T22:20:15;1.40;99.90
33927;DHT22;20485;50.992;5.550;2023-03-03T22:22:41;1.40;99.90
33927;DHT22;20485;50.992;5.550;2023-03-03T22:25:07;1.40;99.90
33927;DHT22;20485;50.992;5.550;2023-03-03T22:27:33;1.40;99.90
33927;DHT22;20485;50.992;5.550;2023-03-03T22:30:00;1.40;99.90
33927;DHT22;20485;50.992;5.550;2023-03-03T22:32:25;1.40;99.90
33927;DHT22;20485;50.992;5.550;2023-03-03T22:34:51;1.40;99.90
33927;DHT22;20485;50.992;5.550;2023-03-03T22:37:17;1.40;99.90
33927;DHT22;20485;50.992;5.550;2023-03-03T22:39:43;1.50;99.90
33927;DHT22;20485;50.992;5.550;2023-03-03T22:42:08;1.50;99.90
33927;DHT22;20485;50.992;5.550;2023-03-03T22:44:35;3.60;99.90
33927;DHT22;20485;50.992;5.550;2023-03-03T22:47:02;3.10;99.90
33927;DHT22;20485;50.992;5.550;2023-03-03T22:49:28;1.40;99.90
33927;DHT22;20485;50.992;5.550;2023-03-03T22:51:53;1.50;99.90
33927;DHT22;20485;50.992;5.550;2023-03-03T22:54:19;1.80;99.90
33927;DHT22;20485;50.992;5.550;2023-03-03T22:56:45;1.40;99.90
33927;DHT22;20485;50.992;5.550;2023-03-03T22:59:11;1.40;99.90
33927;DHT22;20485;50.992;5.550;2023-03-03T23:01:36;1.50;99.90
33927;DHT22;20485;50.992;5.550;2023-03-03T23:04:02;1.50;99.90
33927;DHT22;20485;50.992;5.550;2023-03-03T23:06:28;1.50;99.90
33927;DHT22;20485;50.992;5.550;2023-03-03T23:08:53;1.50;99.90